Ellsworth Air Force Base
KRCA : now visible

Airfield :











YOU CAN JOIN US ON...

 
LOGIN :

Register | Disclaimer

   EN    FR    IT 

 









Legend :    VFR   Marginal VFR   IFR   Intensive IFR   Very Intensive IFR
Visi :
Ceiling :
>= 8 km
>= 3000ft
5 to 8 km
1000 to 3000 ft
1500m to 5 km
500 to 1000 ft
800 to 1500m
200 to 500 ft
< 800m
< 200 ft
Symbols :   Thunderstorms  Fog  Heavy snow  Heavy precipitations  Wind > 20 kt






- Airport Elevation : 3276 ft


KRCA - Ellsworth Air Force Base

CURRENT METAR :
  • 021339Z AUTO 31021G33KT 10SM OVC014 M07/M11 A2961 RMK AO2 SLP056 $

EXPIRED METARs :
  • 021327Z AUTO 31019G32KT 10SM BKN015 BKN080 M07/M11 A2960 RMK AO2 CIG 015V080 SLP053 $
  • 021255Z AUTO 30024G35KT 10SM FEW220 M07/M12 A2958 RMK AO2 PK WND 35044/01 SLP043 T10711120 $
  • 021239Z 31022G37KT 10SM FEW110 FEW220 M07/M12 A2957 RMK PRESRR SLP042 $
  • 021155Z AUTO 32036G47KT 10SM FEW011 M07/M12 A2951 RMK AO2 PK WND 32047/45 SLP021 T10741118 10118 21074 53029 $
  • 021059Z 33028G35KT 10SM CLR M04/M09 A2946 RMK PK WND 35035/55 SLP993 T10441089 $

TAF AMD TAF KRCA
Valid from the 02 at 13:00 until the 03 at 17:00 UTC


021342Z 0213/0317 33028G35KT 9999 OVC012 530028 QNH2940INS
TEMPO 0212/0215 34040G50KT
BECMG 0216/0217 34030G42KT 6000 -SN BKN020 OVC050 650209 530049 QNH2960INS
BECMG 0223/0224 32015G25KT 1600 BLSN SCT020 BKN050 650509 530059 QNH3000INS
BECMG 0302/0303 20012KT 9999 NSW FEW070 QNH3010INS TXM07/0213Z TNM12/0304Z
KZDV FIR / North America



MET'MAP, your aeronautical weather chart ! - Copyright ORBIFLY December 2007 - Disclaimer

ORBIFLY MET'MAP TEAM :

Programming & Development : Alexandra Zaïnal
Original concept : Baudouin d'Aumeries
Technical & hardware support : Manuel Goepfert
Assistance : Marc-Olivier Méhu




SOURCES & CREDITS :

   NOAA       Earth
Advisory